Ana Sayfa
METAR-TAF:

METAR-TAF

Havaalanları :

Lampang, Tayland

Enlem: 18-17N, Boylam: 099-31E, yükseklik: 241 m

Güncel hava durumu gözlemi

Rapor saat 05:00 UTC de 15 dakika önce yapıldı.
Rüzgar kuzey/kuzeybatıdan 3 kt, batı ve kuzey/kuzeydoğu arasında değişken
Sıcaklık 25°C
Nem 47%
Basınç 1018 hPa
Görüş mesafesi 10 km veya daha fazla
1500 m altında bulut yok ve kümülonimbus yok

METAR: VTCL 120500Z 33003KT 270V030 CAVOK 25/13 Q1018 NOSIG

Saat: 12:15 (05:15 UTC)

Tahmin

Rapor saat 23:00 UTC de 6 saat ve 15 dakika önce yapıldı.
Ayın 12'si saat 00 UTC'den ayın 12'si saat 24 UTC'ye kadar geçerli Tahmin
Rüzgar kuzeydoğudan 5 kt
Görüş mesafesi: 4000 m
Pus
Dönüşüyor
ayın 12'si saat 01 UTC'den ayın 12'si saat 03 UTC'ye kadar
Görüş mesafesi 10 km veya daha fazla
2500 ft yükseklikte az bulutlu

TAF: VTCL 112300Z 1200/1224 05005KT 4000 BR NSC BECMG 1201/1203 9999 NSW FEW025

4.000'den fazla havaalanı için hava durumu gözlemleri ve tahminleri (METAR ve TAF raporları).

Kullanılabilir istasyonlar harita üzerinde sarı ve kırmızı noktalarla gösterilir.

İstasyonun adını görmek için fareyi noktanın üzerinde gezdirin.

Sonrasında hava gözlem ve tahminlerini görmek için tıklayın.

Haritayı değiştirmek için: yaklaştırmak için siyah artı işaretli yeşil düğmeye ve uzaklaştırmak için de eksi işaretli düğmeye hızla tıklayın; bitişik haritalar için yeşil okları kullanın.


METAR-TAF: